Tiempo atmosférico en la estación meteorológica de Santillana del Mar, Altamira, Cantabria (150 m.)



Fecha
DESCASC
Temp. máxima en grados centígrados (hora)
DESCASC
Temp. mínima en grados centígrados (hora)
DESCASC
Temp. media en grados centígrados
DESCASC
Racha de viento máxima en m/sg (hora)
DESCASC
Velocidad máxima media en intervalos de 10 minutos(hora)
DESCASC
Precipitaciones diarias en mm
DESCASC
Precipitaciones de 00:00 a 06:00 en mm
DESCASC
Precipitaciones de 06:00 a 12:00 en mm
DESCASC
Precipitaciones de 12:00 a 18:00 en mm
DESCASC
Precipitaciones de 18:00 a 24:00 en mm
DESCASC
05-04-2020 23.2 (15:20) 13.4 (08:20) 18.3 13.89 (12:30) 8.61 (11:50) 1.4 0 0 1 0.4
04-04-2020 22.2 (13:40) 4.8 (06:10) 13.5 9.17 (13:30) 6.39 (19:30) 0 0 0 0 0
03-04-2020 13.7 (12:50) 6 (08:20) 9.8 8.89 (15:50) 5 (15:40) 0 0 0 0 0
02-04-2020 13.1 (14:30) 9.2 (00:00) 11.2 7.22 (17:40) 4.44 (16:50) 0.6 0 0.6 0 0
01-04-2020 16.4 (13:00) 7 (00:00) 11.7 7.5 (09:30) 4.44 (09:30) 0 0 0 0 0
31-03-2020 10.3 (14:40) 0.9 (00:00) 5.6 8.61 (11:40) 4.17 (12:20) 0.4 0.2 0.2 0 0
30-03-2020 7.5 (13:50) 2.1 (00:00) 4.8 11.67 (05:30) 6.39 (15:10) 6.6 2.6 2 0.8 1.2
29-03-2020 13.8 (14:30) 3.5 (00:00) 8.7 8.61 (20:30) 5 (15:30) 1.2 0 0 0.2 1
28-03-2020 14.8 (13:50) 3.2 (00:00) 9 6.39 (15:50) 4.44 (15:50) 0 0 0 0 0
27-03-2020 12.7 (12:40) 1.9 (00:00) 7.3 9.17 (15:30) 5.28 (15:40) 0 0 0 0 0
26-03-2020 12.1 (13:50) 6.6 (00:00) 9.4 10 (12:40) 6.67 (12:40) 0 0 0 0 0
25-03-2020 15.1 (14:20) 6.8 (00:00) 11 8.89 (13:40) 6.11 (12:30) 0 0 0 0 0
24-03-2020 18.9 (14:10) 7.6 (00:00) 13.2 8.61 (14:30) 4.72 (17:20) 0 0 0 0 0
23-03-2020 15 (14:20) 9.3 (00:00) 12.2 8.33 (15:10) 3.89 (14:40) 0 0 0 0 0
22-03-2020 15.2 (15:20) 10.3 (03:40) 12.8 7.22 (12:40) 5 (13:20) 0 0 0 0 0
21-03-2020 18.2 (11:20) 8 (00:00) 13.1 7.5 (13:30) 5 (14:10) 0 0 0 0 0
20-03-2020 14 (15:40) 9 (00:00) 11.5 5.83 (13:50) 3.89 (13:50) 0 0 0 0 0
19-03-2020 12.7 (12:50) 9.7 (00:00) 11.2 4.17 (13:00) 3.33 (13:00) 0.4 0.2 0 0 0.2
18-03-2020 14.3 (14:20) 7.5 (00:00) 10.9 4.72 (15:40) 3.33 (15:20) 0.2 0 0 0 0.2
17-03-2020 13.7 (17:40) 7.9 (00:00) 10.8 5.83 (17:20) 3.61 (00:40) 0.2 0.2 0 0 0
16-03-2020 10.8 (13:10) 5.3 (00:00) 8.1 11.39 (11:20) 7.5 (15:50) 17.6 5 8.6 2.6 1.4
15-03-2020 13.7 (16:30) 5.8 (00:00) 9.8 11.94 (18:00) 5.28 (18:00) 15.4 0 0 2.2 13.2
14-03-2020 13.9 (14:10) 5.7 (00:00) 9.8 5.56 (17:20) 3.33 (12:30) 0 0 0 0 0
13-03-2020 13.2 (13:50) 6.8 (23:10) 10 7.22 (16:20) 3.89 (14:30) 2.6 2.4 0.2 0 0
12-03-2020 12.9 (12:00) 9.5 (00:00) 11.2 8.33 (15:50) 5.83 (15:50) 4.4 0 0 1.8 2.6
11-03-2020 16.9 (13:50) 6.5 (00:00) 11.7 5.83 (14:10) 3.61 (14:10) 0 0 0 0 0
10-03-2020 14.5 (15:30) 5.7 (00:00) 10.1 5.83 (12:30) 3.61 (12:40) 0 0 0 0 0
09-03-2020 13.3 (12:30) 9.2 (00:00) 11.3 11.11 (04:00) 4.72 (13:00) 0.8 0.8 0 0 0

Gráficas

Temp. máximas Temp. mínimas Temp. medias Precipitaciones Rachas de viento máximas Velocidades máximas media en intervalos de 10 minutos

Datos horarios

Fecha y hora oficial Temperatura (ºC) Velocidad del viento (km/h) Dirección del viento Racha (km/h) Dirección de racha Precipitación (mm) Presión (hPa) Tendencia (hPa) Humedad (%)
2020-04-07 23:00:00 11.8 3 Sudoeste 11 Noroeste 0.6 -- -- 100
2020-04-07 22:00:00 11.8 3 Oeste 10 Norte 0 -- -- 99
2020-04-07 21:00:00 12 3 Norte 10 Norte 0 -- -- 98
2020-04-07 20:00:00 12.4 6 Norte 13 Norte 0 -- -- 96
2020-04-07 19:00:00 13.2 6 Norte 17 Norte 0 -- -- 94
2020-04-07 18:00:00 13.9 12 Norte 23 Norte 0 -- -- 92
2020-04-07 17:00:00 14.4 16 Norte 23 Norte 0 -- -- 87
2020-04-07 16:00:00 16.7 9 Norte 15 Norte 0 -- -- 84
2020-04-07 15:00:00 15.9 6 Norte 17 Noroeste 0 -- -- 88
2020-04-07 14:00:00 14.4 11 Norte 19 Noroeste 0 -- -- 89
2020-04-07 13:00:00 14.3 10 Norte 15 Norte 0 -- -- 90
2020-04-07 12:00:00 13.5 5 Norte 10 Norte 0 -- -- 94
2020-04-07 11:00:00 11.6 4 Sudoeste 9 Sur 0 -- -- 100
2020-04-07 10:00:00 10.9 3 Sudoeste 8 Sudoeste 0 -- -- 100
2020-04-07 09:00:00 10.1 7 Sudoeste 11 Sudoeste 0 -- -- 100
2020-04-07 08:00:00 10 4 Sudoeste 10 Sudoeste 0 -- -- 100
2020-04-07 07:00:00 10.1 4 Sudoeste 8 Sudoeste 0 -- -- 100
2020-04-07 06:00:00 10.2 4 Sudoeste 8 Sudoeste 0 -- -- 100
2020-04-07 05:00:00 10.3 3 Sur 5 Sudeste 0 -- -- 100
2020-04-07 04:00:00 10.1 3 Sudeste 8 Este 0 -- -- 100
2020-04-07 03:00:00 9.8 3 Este 7 Este 0 -- -- 100
2020-04-07 02:00:00 10 5 Este 10 Este 0 -- -- 100
2020-04-07 01:00:00 10.4 5 Este 13 Nordeste 0 -- -- 99
2020-04-07 00:00:00 10.5 5 Este 12 Nordeste 0.2 -- -- 99
2020-04-06 23:00:00 10.7 2 Este 8 Nordeste 0.2 -- -- 99
2020-04-06 22:00:00 10.7 4 Nordeste 9 Nordeste 0.2 -- -- 99
2020-04-06 21:00:00 10.9 5 Nordeste 11 Este 0.4 -- -- 97
2020-04-06 20:00:00 11.2 6 Nordeste 14 Nordeste 0 -- -- 94
2020-04-06 19:00:00 11.7 6 Norte 12 Nordeste 0 -- -- 93
2020-04-06 18:00:00 12.4 7 Norte 18 Noroeste 0 -- -- 91
2020-04-06 17:00:00 12.7 8 Norte 13 Norte 0 -- -- 91
2020-04-06 16:00:00 13.2 5 Nordeste 10 Norte 0 -- -- 90
2020-04-06 15:00:00 12.7 5 Norte 13 Norte 0.2 -- -- 96
2020-04-06 14:00:00 11.4 7 Norte 19 Norte 0.2 -- -- 99
2020-04-06 13:00:00 11 9 Noroeste 22 Norte 2.8 -- -- 98
2020-04-06 12:00:00 11.5 9 Noroeste 21 Oeste 1.2 -- -- 97
2020-04-06 11:00:00 12.4 6 Noroeste 12 Oeste 0.6 -- -- 98
2020-04-06 10:00:00 12.1 5 Noroeste 13 Noroeste 0.2 -- -- 98
2020-04-06 09:00:00 11.8 4 Noroeste 13 Oeste 1.6 -- -- 98
2020-04-06 08:00:00 12.1 3 Noroeste 11 Sudoeste 2.4 -- -- 96
2020-04-06 07:00:00 12.4 4 Oeste 13 Oeste 0 -- -- 93
2020-04-06 06:00:00 12.6 3 Oeste 10 Noroeste 0 -- -- 93
2020-04-06 05:00:00 12.6 5 Oeste 14 Oeste 0 -- -- 92
2020-04-06 04:00:00 12.7 4 Oeste 11 Oeste 0 -- -- 88
2020-04-06 03:00:00 13.2 4 Oeste 14 Sudoeste 0 -- -- 83
2020-04-06 02:00:00 13.8 9 Sudoeste 25 Noroeste 0 -- -- 80
2020-04-06 01:00:00 14 15 Noroeste 27 Noroeste 0 -- -- 78
2020-04-06 00:00:00 15.4 6 Oeste 32 Sudoeste 0 -- -- 63
2020-04-05 23:00:00 17.9 14 Sur 35 Sur 0 -- -- 49
2020-04-05 22:00:00 17.5 9 Sur 39 Sudoeste 0 -- -- 56
2020-04-05 21:00:00 18.7 22 Sudoeste 42 Sur 0 -- -- 49
2020-04-05 20:00:00 18.3 24 Sur 47 Sur 0.2 -- -- 57
2020-04-05 19:00:00 18 8 Sur 13 Sur 0.2 -- -- 67
2020-04-05 18:00:00 17.7 8 Sudoeste 24 Sudoeste 1 -- -- 72
2020-04-05 17:00:00 20.6 17 Sur 40 Sur 0 -- -- 48
2020-04-05 16:00:00 21.4 21 Sur 48 Sur 0 -- -- 41
2020-04-05 15:00:00 22.5 19 Sur 35 Sudoeste 0 -- -- 41
2020-04-05 14:00:00 22.4 24 Sur 38 Sur 0 -- -- 40
2020-04-05 13:00:00 20.6 22 Sur 50 Sudoeste 0 -- -- 43
2020-04-05 12:00:00 21.4 28 Sur 47 Sur 0 -- -- 40
2020-04-05 11:00:00 20.7 21 Sur 39 Sur 0 -- -- 40
2020-04-05 10:00:00 16.9 12 Sur 21 Sur 0 -- -- 54
2020-04-05 09:00:00 14 11 Sur 21 Sur 0 -- -- 59
2020-04-05 08:00:00 13.8 10 Sur 26 Sur 0 -- -- 57
2020-04-05 07:00:00 14.7 14 Sur 27 Sur 0 -- -- 53
2020-04-05 06:00:00 15.6 23 Sur 33 Sur 0 -- -- 50
2020-04-05 05:00:00 16.3 22 Sur 33 Sur 0 -- -- 46
2020-04-05 04:00:00 16.8 21 Sur 46 Sur 0 -- -- 44
2020-04-05 03:00:00 16.8 23 Sur 44 Sur 0 -- -- 42
2020-04-05 02:00:00 18.4 29 Sur 46 Sur 0 -- -- 35
2020-04-05 01:00:00 18.5 24 Sur 46 Sur 0 -- -- 35
2020-04-05 00:00:00 16.1 12 Sur 25 Sur 0 -- -- 45
2020-04-04 23:00:00 15.7 13 Sur 21 Sur 0 -- -- 50
2020-04-04 22:00:00 16.6 8 Sur 12 Sudeste 0 -- -- 46
2020-04-04 21:00:00 18 9 Sur 21 Sur 0 -- -- 37
2020-04-04 20:00:00 20.8 18 Sur 30 Sur 0 -- -- 29
2020-04-04 19:00:00 21.9 15 Sur 26 Sur 0 -- -- 28
2020-04-04 18:00:00 17.7 7 Nordeste 19 Noroeste 0 -- -- 50
2020-04-04 17:00:00 20.2 10 Norte 16 Noroeste 0 -- -- 43
2020-04-04 16:00:00 20.3 9 Noroeste 23 Noroeste 0 -- -- 40
2020-04-04 15:00:00 19.8 11 Norte 28 Sudoeste 0 -- -- 47
2020-04-04 14:00:00 20.3 9 Nordeste 33 Sudeste 0 -- -- 42
2020-04-04 13:00:00 21.2 17 Sudeste 27 Sudeste 0 -- -- 34
2020-04-04 12:00:00 19.7 9 Sudeste 17 Sudeste 0 -- -- 40
2020-04-04 11:00:00 16 7 Sur 10 Sudoeste 0 -- -- 46
2020-04-04 10:00:00 12.7 7 Sudoeste 14 Sudoeste 0 -- -- 56
2020-04-04 09:00:00 8.7 9 Sudoeste 16 Sudoeste 0 -- -- 68
2020-04-04 08:00:00 5.8 9 Sudoeste 13 Sudoeste 0 -- -- 85
2020-04-04 07:00:00 5.7 5 Sudoeste 14 Sudoeste 0 -- -- 91
2020-04-04 06:00:00 5.1 5 Sudoeste 9 Sudoeste 0 -- -- 95
2020-04-04 05:00:00 5 5 Sur 18 Sur 0 -- -- 95
2020-04-04 04:00:00 5.8 11 Sur 15 Sudoeste 0 -- -- 93
2020-04-04 03:00:00 6.2 5 Sudoeste 12 Sudoeste 0 -- -- 95
2020-04-04 02:00:00 6.7 4 Sudoeste 8 Sudoeste 0 -- -- 95
2020-04-04 01:00:00 6.7 5 Sur 9 Sur 0 -- -- 92
2020-04-04 00:00:00 7.4 4 Este 10 Este 0 -- -- 89
2020-04-03 23:00:00 7.9 6 Este 10 Este 0 -- -- 87
2020-04-03 22:00:00 8.4 6 Este 12 Este 0 -- -- 84
2020-04-03 21:00:00 9.6 7 Nordeste 17 Nordeste 0 -- -- 81
2020-04-03 20:00:00 11.2 8 Nordeste 25 Nordeste 0 -- -- 72
2020-04-03 19:00:00 12.7 12 Nordeste 30 Nordeste 0 -- -- 64
2020-04-03 18:00:00 13 15 Nordeste 30 Nordeste 0 -- -- 62
2020-04-03 17:00:00 13.7 14 Nordeste 32 Norte 0 -- -- 58
2020-04-03 16:00:00 13.4 16 Nordeste 32 Nordeste 0 -- -- 57
2020-04-03 15:00:00 13.4 15 Nordeste 27 Norte 0 -- -- 56
2020-04-03 14:00:00 13.3 11 Nordeste 22 Nordeste 0 -- -- 56
2020-04-03 13:00:00 13.2 8 Nordeste 19 Nordeste 0 -- -- 51
2020-04-03 12:00:00 12.6 7 Este 18 Este 0 -- -- 63
2020-04-03 11:00:00 11.3 8 Sudeste 12 Sur 0 -- -- 74
2020-04-03 10:00:00 9.1 4 Sudeste 8 Sudeste 0 -- -- 89
2020-04-03 09:00:00 6.9 3 Sur 7 Sudoeste 0 -- -- 94
2020-04-03 08:00:00 6.3 4 Sur 5 Sur 0 -- -- 93
2020-04-03 07:00:00 6.9 3 Sudoeste 8 Sudoeste 0 -- -- 90
2020-04-03 06:00:00 7.6 3 Sur 3 Sur 0 -- -- 85
2020-04-03 05:00:00 8.2 2 Norte 4 Nordeste 0 -- -- 84
2020-04-03 04:00:00 8 3 Sudoeste 4 Sudoeste 0 -- -- 83
2020-04-03 03:00:00 8.2 3 Noroeste 5 Norte 0 -- -- 84
2020-04-03 02:00:00 8.7 4 Norte 5 Noroeste 0 -- -- 85
2020-04-03 01:00:00 9.1 3 Norte 13 Norte 0 -- -- 82
2020-04-03 00:00:00 9.3 6 Norte 13 Norte 0 -- -- 81
2020-04-02 23:00:00 9.5 8 Norte 14 Noroeste 0 -- -- 80
2020-04-02 22:00:00 9.3 6 Norte 10 Norte 0 -- -- 82
2020-04-02 21:00:00 9.4 5 Noroeste 12 Noroeste 0 -- -- 77
2020-04-02 20:00:00 10.1 6 Noroeste 14 Noroeste 0 -- -- 74
2020-04-02 19:00:00 10.9 12 Norte 21 Noroeste 0 -- -- 67
2020-04-02 18:00:00 11.7 13 Norte 26 Norte 0 -- -- 67
2020-04-02 17:00:00 12.1 14 Norte 25 Norte 0 -- -- 73
2020-04-02 16:00:00 12.8 13 Norte 22 Norte 0 -- -- 71
2020-04-02 15:00:00 12.9 10 Norte 21 Noroeste 0 -- -- 72
2020-04-02 14:00:00 12.4 11 Norte 21 Noroeste 0 -- -- 81
2020-04-02 13:00:00 12 14 Norte 23 Noroeste 0 -- -- 86
2020-04-02 12:00:00 12.3 15 Norte 23 Norte 0 -- -- 93
2020-04-02 11:00:00 11.7 9 Norte 18 Noroeste 0 -- -- 99
2020-04-02 10:00:00 11.3 6 Noroeste 17 Noroeste 0 -- -- 100
2020-04-02 09:00:00 10.9 8 Noroeste 20 Norte 0 -- -- 100
2020-04-02 08:00:00 10.7 4 Norte 17 Noroeste 0.6 -- -- 99
2020-04-02 07:00:00 10.7 5 Oeste 17 Oeste 0 -- -- 99
2020-04-02 06:00:00 10.7 5 Noroeste 14 Sudoeste 0 -- -- 98
2020-04-02 05:00:00 10.6 5 Sudoeste 15 Oeste 0 -- -- 98
2020-04-02 04:00:00 10.5 5 Oeste 17 Oeste 0 -- -- 97
2020-04-02 03:00:00 10.5 6 Oeste 16 Noroeste 0 -- -- 97
2020-04-02 02:00:00 10.5 0 Calma 10 Sudoeste 0 -- -- 96
2020-04-02 01:00:00 10.6 5 Sudoeste 10 Sudoeste 0 -- -- 96
2020-04-02 00:00:00 10.7 4 Sudoeste 10 Sudoeste 0 -- -- 94
2020-04-01 23:00:00 10.9 2 Oeste 10 Oeste 0 -- -- 91
2020-04-01 22:00:00 11 2 Norte 12 Sudoeste 0 -- -- 92
2020-04-01 21:00:00 11.2 2 Este 22 Oeste 0 -- -- 91
2020-04-01 20:00:00 11.5 9 Noroeste 23 Oeste 0 -- -- 91
2020-04-01 19:00:00 11.7 11 Noroeste 24 Noroeste 0 -- -- 87
2020-04-01 18:00:00 12.7 12 Noroeste 22 Noroeste 0 -- -- 77
2020-04-01 17:00:00 14.2 8 Noroeste 23 Noroeste 0 -- -- 79
2020-04-01 16:00:00 14 13 Norte 23 Noroeste 0 -- -- 77
2020-04-01 15:00:00 14.9 14 Norte 22 Norte 0 -- -- 73
2020-04-01 14:00:00 14.7 15 Norte 21 Norte 0 -- -- 75
2020-04-01 13:00:00 16.4 6 Sudeste 17 Este 0 -- -- 67
2020-04-01 12:00:00 14 10 Sudeste 21 Sudeste 0 -- -- 77
2020-04-01 11:00:00 12.2 14 Sudeste 21 Sudeste 0 -- -- 80
2020-04-01 10:00:00 12.3 12 Sur 27 Sudeste 0 -- -- 76
2020-04-01 09:00:00 10.4 12 Sudeste 20 Sudeste 0 -- -- 85
2020-04-01 08:00:00 8.5 4 Sudeste 17 Este 0 -- -- 89
2020-04-01 07:00:00 8.7 9 Sudeste 18 Este 0 -- -- 89
2020-04-01 06:00:00 7.5 7 Sudeste 12 Sudeste 0 -- -- 94
2020-04-01 05:00:00 7.3 6 Sur 13 Sudeste 0 -- -- 93
2020-04-01 04:00:00 7.5 3 Sudeste 10 Este 0 -- -- 92
2020-04-01 03:00:00 7.6 5 Este 9 Sudeste 0 -- -- 95
2020-04-01 02:00:00 7.1 3 Este 8 Este 0 -- -- 94
2020-04-01 01:00:00 7.3 4 Este 14 Nordeste 0 -- -- 94
2020-04-01 00:00:00 7.2 5 Este 11 Sudeste 0 -- -- 95
2020-03-31 23:00:00 7 4 Este 9 Este 0 -- -- 96
2020-03-31 22:00:00 7 5 Sur 15 Sudeste 0 -- -- 95
2020-03-31 21:00:00 7.5 8 Este 21 Este 0 -- -- 93
2020-03-31 20:00:00 8.1 14 Este 24 Este 0 -- -- 90
2020-03-31 19:00:00 8.1 13 Nordeste 28 Nordeste 0 -- -- 90
2020-03-31 18:00:00 8.1 8 Este 24 Este 0 -- -- 88
2020-03-31 17:00:00 8.1 15 Este 27 Este 0 -- -- 87
2020-03-31 16:00:00 9.1 12 Nordeste 26 Este 0 -- -- 82
2020-03-31 15:00:00 9.7 10 Nordeste 26 Este 0 -- -- 74
2020-03-31 14:00:00 9 13 Este 26 Este 0 -- -- 76
2020-03-31 13:00:00 7.9 14 Este 28 Este 0 -- -- 77
2020-03-31 12:00:00 7.3 12 Este 31 Sudeste 0 -- -- 82
2020-03-31 11:00:00 6.1 12 Este 22 Este 0.2 -- -- 93
2020-03-31 10:00:00 3.8 5 Sudeste 12 Este 0 -- -- 99
2020-03-31 09:00:00 2 0 Calma 5 Sur 0 -- -- 100
2020-03-31 08:00:00 1.5 5 Sur 6 Sur 0 -- -- 100
2020-03-31 07:00:00 1.2 2 Sudeste 5 Sur 0 -- -- 100
2020-03-31 06:00:00 1.1 6 Sudoeste 9 Sur 0 -- -- 99
2020-03-31 05:00:00 1.3 0 Calma 8 Sur 0 -- -- 98
2020-03-31 04:00:00 1.7 7 Sur 16 Sudoeste 0 -- -- 97
2020-03-31 03:00:00 2.4 12 Sudoeste 18 Sudoeste 0 -- -- 98
2020-03-31 02:00:00 2.5 9 Sudoeste 17 Sudoeste 0 -- -- 99
2020-03-31 01:00:00 2.7 9 Sudoeste 15 Sudoeste 0.2 -- -- 99
2020-03-31 00:00:00 2.6 2 Oeste 17 Sudoeste 0.4 -- -- 99
2020-03-30 23:00:00 2.4 6 Sudoeste 14 Sudoeste 0 -- -- 98
2020-03-30 22:00:00 2.1 8 Sudoeste 17 Sudoeste 0.2 -- -- 97
2020-03-30 21:00:00 2.9 8 Sudoeste 17 Sudoeste 0.2 -- -- 94
2020-03-30 20:00:00 4.2 3 Sudoeste 8 Nordeste 0.4 -- -- 92
2020-03-30 19:00:00 5 4 Norte 22 Nordeste 0 -- -- 87
2020-03-30 18:00:00 6.1 3 Este 16 Nordeste 0 -- -- 78
2020-03-30 17:00:00 5.8 10 Norte 28 Norte 0.2 -- -- 80
2020-03-30 16:00:00 5.9 18 Norte 42 Norte -- -- -- 81
2020-03-30 15:00:00 7.5 14 Norte 31 Nordeste 0 -- -- 71
2020-03-30 14:00:00 6.9 22 Norte 38 Norte 0 -- -- 74
2020-03-30 13:00:00 6.3 19 Norte 36 Norte 0.6 -- -- 71
2020-03-30 12:00:00 5.5 7 Norte 30 Nordeste 0 -- -- 75
2020-03-30 11:00:00 5.2 12 Nordeste 33 Nordeste 0.8 -- -- 85
2020-03-30 10:00:00 4.6 5 Noroeste 25 Nordeste 0 -- -- 88
2020-03-30 09:00:00 3.9 8 Nordeste 35 Nordeste 1.2 -- -- 94
2020-03-30 08:00:00 4.9 12 Norte 33 Nordeste 0 -- -- 79
2020-03-30 07:00:00 5.6 17 Norte 35 Norte 0 -- -- 77
2020-03-30 06:00:00 4.8 9 Norte 42 Norte 0.4 -- -- 89
2020-03-30 05:00:00 5.3 5 Sudoeste 14 Sudoeste 0 -- -- 92
2020-03-30 04:00:00 5.2 8 Sudoeste 15 Sudoeste 0 -- -- 96
2020-03-30 03:00:00 5.5 8 Sudoeste 15 Este 0.2 -- -- 94
2020-03-30 02:00:00 5.7 4 Este 29 Nordeste 0.4 -- -- 91
2020-03-30 01:00:00 6 10 Nordeste 32 Nordeste 1.6 -- -- 94
2020-03-30 00:00:00 6.6 3 Noroeste 9 Noroeste 0.4 -- -- 89
2020-03-29 23:00:00 7.2 6 Nordeste 29 Nordeste 0.2 -- -- 86
2020-03-29 22:00:00 7.6 13 Norte 28 Nordeste 0 -- -- 82
2020-03-29 21:00:00 7.6 13 Norte 31 Nordeste 0 -- -- 88
2020-03-29 20:00:00 7.8 14 Norte 27 Norte 0.2 -- -- 95
2020-03-29 19:00:00 8.3 13 Norte 25 Nordeste 0.2 -- -- 96
2020-03-29 18:00:00 8.9 11 Nordeste 29 Nordeste 0.2 -- -- 96
2020-03-29 17:00:00 9.9 14 Norte 29 Nordeste 0 -- -- 91
2020-03-29 16:00:00 11.8 17 Norte 26 Norte 0 -- -- 70
2020-03-29 15:00:00 13.7 13 Norte 21 Noroeste 0 -- -- 62
2020-03-29 14:00:00 13.4 11 Norte 22 Norte 0 -- -- 65
2020-03-29 13:00:00 12.6 8 Norte 15 Noroeste 0 -- -- 71
2020-03-29 12:00:00 12.2 11 Norte 18 Norte 0 -- -- 77
2020-03-29 11:00:00 11 6 Sur 12 Sudoeste 0 -- -- 79
2020-03-29 10:00:00 8.5 9 Sur 15 Sudoeste 0 -- -- 84
2020-03-29 09:00:00 6.4 9 Sudoeste 15 Sudoeste 0 -- -- 90
2020-03-29 08:00:00 6.1 9 Sudoeste 15 Sudoeste 0 -- -- 91
2020-03-29 07:00:00 5.3 9 Sudoeste 13 Sudoeste 0 -- -- 97
2020-03-29 06:00:00 4.1 5 Sudoeste 9 Sudoeste 0 -- -- 97
2020-03-29 05:00:00 4.9 5 Sur 11 Sudoeste 0 -- -- 93
2020-03-29 03:00:00 6.2 4 Sudoeste 8 Oeste 0 -- -- 91
2020-03-29 01:00:00 7.7 6 Sudoeste 12 Sudoeste 0 -- -- 89
2020-03-29 00:00:00 8.1 7 Sudoeste 12 Sudoeste 0 -- -- 90
2020-03-28 23:00:00 8.5 6 Sudoeste 10 Sudoeste 0 -- -- 88
2020-03-28 22:00:00 9.2 0 Calma 5 Este 0 -- -- 86
2020-03-28 21:00:00 9.4 3 Norte 8 Norte 0 -- -- 86
2020-03-28 20:00:00 10.2 5 Norte 9 Norte 0 -- -- 82
2020-03-28 19:00:00 11.7 5 Norte 22 Norte 0 -- -- 71
2020-03-28 18:00:00 13.1 9 Norte 22 Noroeste 0 -- -- 61
2020-03-28 17:00:00 13.7 12 Norte 23 Norte 0 -- -- 71
2020-03-28 16:00:00 13.8 15 Norte 23 Norte 0 -- -- 64
2020-03-28 15:00:00 14.3 14 Norte 21 Norte 0 -- -- 64
2020-03-28 14:00:00 14.7 10 Norte 19 Nordeste 0 -- -- 63
2020-03-28 13:00:00 14.2 8 Norte 15 Norte 0 -- -- 60
2020-03-28 12:00:00 13.2 10 Norte 18 Norte 0 -- -- 64
2020-03-28 11:00:00 12.9 2 Este 8 Noroeste 0 -- -- 58
2020-03-28 10:00:00 10.6 5 Sur 13 Sudoeste 0 -- -- 69
2020-03-28 09:00:00 6.6 8 Sur 13 Sudoeste 0 -- -- 86
2020-03-28 08:00:00 4.2 7 Sur 13 Sudoeste 0 -- -- 91
2020-03-28 07:00:00 4.5 10 Sudoeste 16 Sudoeste 0 -- -- 89
2020-03-28 06:00:00 4 5 Sudoeste 14 Sudoeste 0 -- -- 91
2020-03-28 05:00:00 4.4 11 Sur 14 Sudoeste 0 -- -- 88
2020-03-28 04:00:00 4.2 7 Sudoeste 13 Sudoeste 0 -- -- 92
2020-03-28 03:00:00 3.6 8 Sudoeste 12 Sudoeste 0 -- -- 93
2020-03-28 02:00:00 4.3 7 Sudoeste 12 Sudoeste 0 -- -- 91
2020-03-28 01:00:00 6.2 4 Sudoeste 9 Sudoeste 0 -- -- 84
2020-03-28 00:00:00 6.9 6 Sur 8 Sudoeste 0 -- -- 84
2020-03-27 23:00:00 7.1 4 Sur 10 Nordeste 0 -- -- 81
2020-03-27 22:00:00 7.7 6 Este 13 Este 0 -- -- 80
2020-03-27 21:00:00 8.1 7 Este 20 Este 0 -- -- 78
2020-03-27 20:00:00 8.8 8 Este 19 Este 0 -- -- 72
2020-03-27 19:00:00 10.3 10 Nordeste 26 Este 0 -- -- 62
2020-03-27 18:00:00 11.7 12 Nordeste 28 Nordeste 0 -- -- 58
2020-03-27 17:00:00 12.2 13 Nordeste 31 Nordeste 0 -- -- 57
2020-03-27 16:00:00 12.2 16 Nordeste 33 Nordeste 0 -- -- 59
2020-03-27 15:00:00 12.4 17 Nordeste 30 Nordeste 0 -- -- 60
2020-03-27 14:00:00 12.4 16 Nordeste 31 Norte 0 -- -- 61
2020-03-27 13:00:00 12.2 17 Norte 28 Norte 0 -- -- 56
2020-03-27 12:00:00 12.1 9 Nordeste 17 Nordeste 0 -- -- 52
2020-03-27 11:00:00 11.2 5 Este 14 Este 0 -- -- 53
2020-03-27 10:00:00 8.4 7 Sur 12 Sur 0 -- -- 70
2020-03-27 09:00:00 5.7 10 Sudoeste 18 Sur 0 -- -- 80
2020-03-27 08:00:00 3.6 9 Sudoeste 14 Sudoeste 0 -- -- 86
2020-03-27 07:00:00 2 9 Sur 15 Sudoeste 0 -- -- 88
2020-03-27 06:00:00 4.1 9 Sudoeste 18 Sudoeste 0 -- -- 80
2020-03-27 05:00:00 3.5 7 Sur 12 Sudoeste 0 -- -- 82
2020-03-27 04:00:00 3.9 8 Sur 13 Sudoeste 0 -- -- 80
2020-03-27 03:00:00 5.1 6 Sudoeste 14 Oeste 0 -- -- 77
2020-03-27 02:00:00 5.5 7 Sudoeste 12 Sudoeste 0 -- -- 76
2020-03-27 01:00:00 6.4 6 Sudoeste 10 Sudoeste 0 -- -- 71
2020-03-27 00:00:00 6.6 6 Sudoeste 11 Sudoeste 0 -- -- 68
2020-03-26 23:00:00 7.1 3 Sudoeste 5 Norte 0 -- -- 65
2020-03-26 22:00:00 7.5 2 Norte 11 Norte 0 -- -- 66
2020-03-26 21:00:00 7.7 8 Norte 22 Norte 0 -- -- 63
2020-03-26 20:00:00 7.8 9 Norte 26 Norte 0 -- -- 63
2020-03-26 19:00:00 8.9 14 Norte 31 Norte 0 -- -- 61
2020-03-26 18:00:00 9.7 15 Norte 31 Norte 0 -- -- 63
2020-03-26 17:00:00 10 15 Norte 30 Oeste 0 -- -- 67
2020-03-26 16:00:00 10.7 9 Noroeste 34 Noroeste 0 -- -- 72
2020-03-26 15:00:00 11.5 15 Noroeste 35 Noroeste 0 -- -- 69
2020-03-26 14:00:00 12 15 Noroeste 33 Noroeste 0 -- -- 67
2020-03-26 13:00:00 11.4 13 Noroeste 36 Noroeste 0 -- -- 70
2020-03-26 12:00:00 10.7 9 Noroeste 27 Noroeste 0 -- -- 75
2020-03-26 11:00:00 10.1 13 Noroeste 29 Oeste 0 -- -- 75
2020-03-26 10:00:00 9.6 7 Oeste 27 Oeste 0 -- -- 76
2020-03-26 09:00:00 8.7 9 Oeste 25 Oeste 0 -- -- 80
2020-03-26 08:00:00 8.2 7 Oeste 23 Sudoeste 0 -- -- 81
2020-03-26 07:00:00 8 6 Oeste 22 Oeste 0 -- -- 80
2020-03-26 06:00:00 8.1 10 Oeste 24 Oeste 0 -- -- 80
2020-03-26 05:00:00 7.4 7 Oeste 18 Oeste 0 -- -- 82
2020-03-26 04:00:00 7.3 8 Oeste 18 Oeste 0 -- -- 79
2020-03-26 03:00:00 6.9 4 Oeste 15 Sudoeste 0 -- -- 82
2020-03-26 02:00:00 6.9 8 Sudoeste 13 Sudoeste 0 -- -- 87
2020-03-26 01:00:00 7.1 5 Sudoeste 6 Sudoeste 0 -- -- 85
2020-03-26 00:00:00 7.3 0 Calma 4 Norte 0 -- -- 81
2020-03-25 23:00:00 7.1 3 Noroeste 5 Noroeste 0 -- -- 82
2020-03-25 22:00:00 7.8 2 Norte 7 Norte 0 -- -- 85
2020-03-25 21:00:00 7.5 4 Norte 10 Norte 0 -- -- 86
2020-03-25 20:00:00 8.6 6 Noroeste 9 Noroeste 0 -- -- 82
2020-03-25 19:00:00 10.4 6 Noroeste 15 Norte 0 -- -- 78
2020-03-25 18:00:00 11.5 11 Norte 21 Norte 0 -- -- 73
2020-03-25 17:00:00 13 13 Noroeste 21 Noroeste 0 -- -- 72
2020-03-25 16:00:00 13.8 12 Norte 22 Norte 0 -- -- 74
2020-03-25 15:00:00 13.8 12 Norte 23 Norte 0 -- -- 81
2020-03-25 14:00:00 14.6 13 Noroeste 32 Norte 0 -- -- 79
2020-03-25 13:00:00 14.3 16 Noroeste 31 Norte 0 -- -- 81
2020-03-25 12:00:00 13.7 20 Noroeste 31 Norte 0 -- -- 87
2020-03-25 11:00:00 14.9 6 Noroeste 20 Oeste 0 -- -- 80
2020-03-25 10:00:00 13.5 7 Noroeste 15 Norte 0 -- -- 77
2020-03-25 09:00:00 10.7 5 Sur 9 Sudoeste 0 -- -- 89
2020-03-25 08:00:00 7.7 4 Sudoeste 9 Sudoeste 0 -- -- 95
2020-03-25 07:00:00 7.2 3 Sudoeste 10 Sudoeste 0 -- -- 94
2020-03-25 06:00:00 7.7 2 Sur 10 Oeste 0 -- -- 93
2020-03-25 05:00:00 7.5 8 Sudoeste 10 Sudoeste 0 -- -- 95
2020-03-25 04:00:00 6.9 8 Sur 13 Sudoeste 0 -- -- 93
2020-03-25 03:00:00 6.9 10 Sudoeste 13 Sudoeste 0 -- -- 95
2020-03-25 02:00:00 8.2 6 Sudoeste 8 Sudoeste 0 -- -- 92
2020-03-25 01:00:00 9.6 5 Sudoeste 10 Sudoeste 0 -- -- 87
2020-03-25 00:00:00 9.8 8 Sudoeste 12 Sudoeste 0 -- -- 89
2020-03-24 23:00:00 10.9 6 Este 17 Este 0 -- -- 84
2020-03-24 22:00:00 11 6 Este 14 Nordeste 0 -- -- 85
2020-03-24 21:00:00 11.7 5 Nordeste 12 Nordeste 0 -- -- 80
2020-03-24 20:00:00 12.9 4 Nordeste 12 Nordeste 0 -- -- 78
2020-03-24 19:00:00 14.6 7 Nordeste 19 Este -- -- -- 73
2020-03-24 18:00:00 16.1 13 Nordeste 31 Nordeste 0 -- -- 66
2020-03-24 17:00:00 17.1 12 Nordeste 30 Nordeste 0 -- -- 66
2020-03-24 16:00:00 17.7 13 Nordeste 29 Nordeste 0 -- -- 64
2020-03-24 15:00:00 18.3 13 Nordeste 31 Este 0 -- -- 62
2020-03-24 14:00:00 18.8 12 Nordeste 24 Nordeste 0 -- -- 62
2020-03-24 13:00:00 18.1 10 Nordeste 22 Nordeste 0 -- -- 63
2020-03-24 12:00:00 16.9 11 Nordeste 21 Nordeste 0 -- -- 67
2020-03-24 11:00:00 16.2 8 Nordeste 13 Nordeste 0 -- -- 70
2020-03-24 10:00:00 14.2 3 Nordeste 8 Sur 0 -- -- 81
2020-03-24 09:00:00 10.8 5 Sudoeste 9 Sudoeste 0 -- -- 99
2020-03-24 08:00:00 9.1 4 Sudoeste 15 Sudoeste 0 -- -- 100
2020-03-24 07:00:00 7.8 7 Sur 14 Sudeste 0 -- -- 100
2020-03-24 06:00:00 7.6 8 Sur 15 Sur 0 -- -- 100
2020-03-24 05:00:00 8.3 0 Calma 9 Este 0 -- -- 100
2020-03-24 04:00:00 8.3 4 Sur 8 Este 0 -- -- 100
2020-03-24 03:00:00 8.3 2 Nordeste 7 Sudeste 0 -- -- 100
2020-03-24 02:00:00 8.7 5 Sudeste 7 Sudeste 0 -- -- 99
2020-03-24 01:00:00 9 4 Sur 8 Sudoeste 0 -- -- 99
2020-03-24 00:00:00 9.3 4 Sudoeste 6 Sudoeste 0 -- -- 98
2020-03-23 23:00:00 10 2 Sudeste 4 Este 0 -- -- 98
2020-03-23 22:00:00 10.2 2 Nordeste 6 Norte 0 -- -- 96
2020-03-23 21:00:00 10.9 4 Norte 9 Norte 0 -- -- 92
2020-03-23 20:00:00 11.6 6 Norte 12 Nordeste 0 -- -- 92
2020-03-23 19:00:00 12.1 8 Nordeste 21 Nordeste 0 -- -- 91
2020-03-23 18:00:00 12.6 10 Norte 25 Nordeste 0 -- -- 89
2020-03-23 17:00:00 13.4 8 Norte 21 Norte 0 -- -- 83
2020-03-23 16:00:00 13.7 12 Nordeste 30 Nordeste 0 -- -- 83
2020-03-23 15:00:00 14.2 14 Nordeste 29 Nordeste 0 -- -- 81
2020-03-23 14:00:00 14.7 12 Nordeste 26 Nordeste 0 -- -- 82
2020-03-23 13:00:00 13.9 11 Nordeste 21 Norte 0 -- -- 83
2020-03-23 12:00:00 13.6 8 Nordeste 15 Nordeste 0 -- -- 85
2020-03-23 11:00:00 12.4 6 Nordeste 10 Nordeste 0 -- -- 89
2020-03-23 10:00:00 11.6 0 Calma 4 Norte 0 -- -- 96
2020-03-23 09:00:00 10.8 0 Calma 4 Sudeste 0 -- -- 98
2020-03-23 08:00:00 10.3 2 Este 3 Sur 0 -- -- 99
2020-03-23 07:00:00 10.2 2 Sur 3 Sur 0 -- -- 98
2020-03-23 06:00:00 10.1 0 Calma 7 Sudeste 0 -- -- 98
2020-03-23 05:00:00 10.3 2 Sudeste 8 Nordeste 0 -- -- 98
2020-03-23 04:00:00 10.5 4 Norte 8 Nordeste 0 -- -- 98
2020-03-23 03:00:00 10.5 2 Norte 5 Norte 0 -- -- 98
2020-03-23 02:00:00 10.6 3 Norte 6 Norte 0 -- -- 98
2020-03-23 01:00:00 10.8 3 Norte 6 Nordeste 0 -- -- 98
2020-03-23 00:00:00 11 3 Nordeste 8 Nordeste 0 -- -- 98
2020-03-22 23:00:00 10.8 3 Norte 9 Noroeste 0 -- -- 97
2020-03-22 22:00:00 11.4 3 Norte 9 Norte 0 -- -- 97
2020-03-22 21:00:00 11.6 5 Norte 9 Norte 0 -- -- 97
2020-03-22 20:00:00 11.6 0 Calma 13 Noroeste 0 -- -- 96
2020-03-22 19:00:00 12.1 7 Noroeste 18 Noroeste 0 -- -- 94
2020-03-22 18:00:00 12.7 9 Noroeste 22 Noroeste 0 -- -- 92
2020-03-22 17:00:00 13.3 13 Norte 25 Noroeste 0 -- -- 88
2020-03-22 16:00:00 14.4 14 Norte 26 Norte 0 -- -- 83
2020-03-22 15:00:00 14.9 11 Noroeste 26 Noroeste 0 -- -- 79
2020-03-22 14:00:00 14.2 15 Noroeste 26 Norte 0 -- -- 83
2020-03-22 13:00:00 13.7 16 Noroeste 26 Norte 0 -- -- 83
2020-03-22 12:00:00 13.7 6 Noroeste 16 Noroeste 0 -- -- 81
2020-03-22 11:00:00 12.8 7 Noroeste 15 Oeste 0 -- -- 84
2020-03-22 10:00:00 11.9 6 Oeste 18 Oeste 0 -- -- 89
2020-03-22 09:00:00 11.2 5 Oeste 13 Oeste 0 -- -- 93
2020-03-22 08:00:00 10.5 4 Sudoeste 12 Sur 0 -- -- 94
2020-03-22 07:00:00 10.3 5 Sudoeste 14 Sudoeste 0 -- -- 94
2020-03-22 06:00:00 10.3 7 Sudoeste 12 Sudoeste 0 -- -- 94
2020-03-22 05:00:00 10.3 6 Sudoeste 12 Sudoeste 0 -- -- 94
2020-03-22 04:00:00 10.3 3 Oeste 6 Oeste 0 -- -- 94
2020-03-22 03:00:00 10.4 3 Sudoeste 9 Sudoeste 0 -- -- 95
2020-03-22 02:00:00 10.6 5 Sudoeste 9 Sudoeste 0 -- -- 95
2020-03-22 01:00:00 10.7 6 Sudoeste 10 Sur 0 -- -- 95
2020-03-22 00:00:00 10.6 6 Sudoeste 9 Sudoeste 0 -- -- 96
2020-03-21 23:00:00 10.4 4 Oeste 10 Sudoeste 0 -- -- 97
2020-03-21 22:00:00 9.9 5 Sudoeste 8 Sudoeste 0 -- -- 98
2020-03-21 21:00:00 10.2 0 Calma 12 Noroeste 0 -- -- 96
2020-03-21 20:00:00 10.7 6 Noroeste 17 Noroeste 0 -- -- 95
2020-03-21 19:00:00 11.4 7 Noroeste 17 Noroeste 0 -- -- 93
2020-03-21 18:00:00 12.4 10 Noroeste 23 Noroeste 0 -- -- 91
2020-03-21 17:00:00 13.1 15 Noroeste 25 Noroeste 0 -- -- 88
2020-03-21 16:00:00 14.3 11 Norte 24 Noroeste 0 -- -- 86
2020-03-21 15:00:00 14.6 15 Norte 27 Noroeste 0 -- -- 86
2020-03-21 14:00:00 14.7 16 Norte 27 Noroeste 0 -- -- 88
2020-03-21 13:00:00 14.4 14 Norte 26 Noroeste 0 -- -- 87
2020-03-21 12:00:00 14.6 10 Norte 18 Noroeste 0 -- -- 85
2020-03-21 11:00:00 17.3 13 Sur 20 Sudeste 0 -- -- 66
2020-03-21 10:00:00 15 10 Sur 19 Sudeste 0 -- -- 77
2020-03-21 09:00:00 11.5 7 Sur 17 Sur 0 -- -- 96
2020-03-21 08:00:00 8.8 2 Este 6 Sudeste 0 -- -- 100
2020-03-21 07:00:00 8.1 5 Norte 8 Norte 0 -- -- 100
2020-03-21 06:00:00 8.2 3 Norte 7 Noroeste 0 -- -- 100
2020-03-21 05:00:00 8.6 2 Norte 7 Norte 0 -- -- 100
2020-03-21 04:00:00 9.4 6 Norte 10 Norte 0 -- -- 100
2020-03-21 03:00:00 10 4 Nordeste 7 Norte 0 -- -- 97
2020-03-21 02:00:00 10.4 3 Sudoeste 9 Sudoeste 0 -- -- 95
2020-03-21 01:00:00 10.5 2 Norte 7 Norte 0 -- -- 100
2020-03-21 00:00:00 10.1 4 Norte 10 Norte 0 -- -- 100
2020-03-20 23:00:00 10.2 3 Noroeste 4 Sudeste 0 -- -- 100
2020-03-20 22:00:00 10.1 0 Calma 3 Sudeste 0 -- -- 100
2020-03-20 21:00:00 10.1 0 Calma 3 Nordeste 0 -- -- 99
2020-03-20 20:00:00 10.4 0 Calma 5 Norte 0 -- -- 97
2020-03-20 19:00:00 11.3 3 Norte 10 Noroeste 0 -- -- 96
2020-03-20 18:00:00 11.7 7 Norte 17 Norte 0 -- -- 95
2020-03-20 17:00:00 12.1 9 Norte 20 Noroeste 0 -- -- 94
2020-03-20 16:00:00 13.3 12 Norte 19 Norte 0 -- -- 90
2020-03-20 15:00:00 13.2 13 Norte 20 Noroeste 0 -- -- 91
2020-03-20 14:00:00 12.6 13 Norte 21 Noroeste 0 -- -- 93
2020-03-20 13:00:00 12.8 9 Norte 17 Norte 0 -- -- 95
2020-03-20 12:00:00 12 10 Norte 15 Norte 0 -- -- 99
2020-03-20 11:00:00 11.3 13 Norte 20 Noroeste 0 -- -- 100
2020-03-20 10:00:00 10.9 8 Norte 14 Noroeste 0 -- -- 100
2020-03-20 09:00:00 10.4 5 Norte 14 Noroeste 0 -- -- 100
2020-03-20 08:00:00 9.4 8 Norte 12 Norte 0 -- -- 100
2020-03-20 07:00:00 9.3 4 Noroeste 9 Norte 0 -- -- 100
2020-03-20 06:00:00 9 2 Noroeste 6 Noroeste 0 -- -- 100
2020-03-20 05:00:00 9.6 0 Calma 4 Noroeste 0 -- -- 100
2020-03-20 04:00:00 10.1 0 Calma 2 Sudoeste 0 -- -- 100
2020-03-20 03:00:00 10.2 0 Calma 5 Sudoeste 0 -- -- 100
2020-03-20 02:00:00 10.4 0 Calma 5 Noroeste 0 -- -- 100
2020-03-20 01:00:00 10.6 0 Calma 4 Norte 0 -- -- 100
2020-03-20 00:00:00 10.8 0 Calma 3 Norte 0 -- -- 100
2020-03-19 23:00:00 10.8 0 Calma 3 Norte 0.2 -- -- 100
2020-03-19 22:00:00 10.8 0 Calma 2 Noroeste 0 -- -- 100
2020-03-19 21:00:00 10.9 3 Norte 4 Norte 0 -- -- 100
2020-03-19 20:00:00 10.8 0 Calma 4 Noroeste 0 -- -- 100
2020-03-19 19:00:00 10.8 3 Norte 10 Norte 0 -- -- 100
2020-03-19 18:00:00 11.1 6 Norte 10 Norte 0 -- -- 99
2020-03-19 17:00:00 11.4 7 Norte 12 Noroeste 0 -- -- 98
2020-03-19 16:00:00 12 7 Noroeste 13 Noroeste 0 -- -- 96
2020-03-19 15:00:00 12.7 6 Norte 12 Norte 0 -- -- 95
2020-03-19 14:00:00 12.2 7 Norte 14 Norte 0 -- -- 98
2020-03-19 13:00:00 12.3 12 Norte 15 Norte 0 -- -- 98
2020-03-19 12:00:00 11.7 3 Norte 7 Norte 0 -- -- 100
2020-03-19 11:00:00 10.7 2 Nordeste 6 Nordeste 0 -- -- 100
2020-03-19 10:00:00 10.3 0 Calma 5 Sudoeste 0 -- -- 100
2020-03-19 09:00:00 9.7 3 Sudoeste 6 Sur 0 -- -- 100
2020-03-19 08:00:00 9.7 3 Sur 6 Sudoeste 0 -- -- 100
2020-03-19 07:00:00 9.8 2 Sudoeste 7 Oeste 0 -- -- 100
2020-03-19 06:00:00 10 2 Noroeste 6 Oeste 0.2 -- -- 100
2020-03-19 05:00:00 10.2 3 Oeste 8 Oeste 0 -- -- 100
2020-03-19 04:00:00 10.3 0 Calma 5 Sudoeste 0 -- -- 100
2020-03-19 03:00:00 10.3 2 Sudoeste 4 Sudoeste 0 -- -- 100
2020-03-19 02:00:00 10.2 2 Sur 6 Sur 0 -- -- 100
2020-03-19 01:00:00 10.5 0 Calma 4 Oeste 0 -- -- 100
2020-03-19 00:00:00 10.7 0 Calma 4 Sudeste 0.2 -- -- 100
2020-03-18 23:00:00 10.8 2 Este 5 Sudeste 0 -- -- 100
2020-03-18 22:00:00 11 3 Sudeste 5 Sudeste 0 -- -- 100
2020-03-18 21:00:00 10.8 0 Calma 6 Norte 0 -- -- 100
2020-03-18 20:00:00 10.9 3 Norte 11 Norte 0 -- -- 99
2020-03-18 19:00:00 11.4 7 Norte 12 Norte 0 -- -- 96
2020-03-18 18:00:00 12.5 6 Norte 15 Noroeste 0 -- -- 93
2020-03-18 17:00:00 13.5 5 Norte 13 Norte 0 -- -- 90
2020-03-18 16:00:00 12.9 10 Norte 17 Noroeste 0 -- -- 90
2020-03-18 15:00:00 13.6 10 Norte 17 Norte 0 -- -- 88
2020-03-18 14:00:00 14 6 Norte 11 Norte 0 -- -- 89
2020-03-18 13:00:00 13.9 5 Nordeste 10 Norte 0 -- -- 87
2020-03-18 12:00:00 12.6 2 Nordeste 5 Norte 0 -- -- 96
2020-03-18 11:00:00 11 5 Sur 7 Sur 0 -- -- 100
2020-03-18 10:00:00 9.4 5 Sudoeste 12 Oeste 0 -- -- 100
2020-03-18 09:00:00 8.7 4 Norte 10 Oeste 0 -- -- 100
2020-03-18 08:00:00 7.7 4 Sudoeste 10 Sudoeste 0 -- -- 100
2020-03-18 07:00:00 8.1 5 Sudoeste 10 Sudoeste 0 -- -- 100
2020-03-18 06:00:00 7.8 6 Sudoeste 11 Sudoeste 0 -- -- 100
2020-03-18 05:00:00 7.9 6 Sudoeste 13 Sudoeste 0 -- -- 100
2020-03-18 04:00:00 8.2 4 Sudoeste 9 Sudoeste 0 -- -- 100
2020-03-18 03:00:00 9.3 0 Calma 6 Sudoeste 0 -- -- 100
2020-03-18 02:00:00 9.3 3 Oeste 8 Sudoeste 0 -- -- 100
2020-03-18 01:00:00 9.2 3 Sur 4 Noroeste 0 -- -- 100
2020-03-18 00:00:00 9.4 0 Calma 4 Norte 0 -- -- 100
2020-03-17 23:00:00 9.4 2 Noroeste 9 Sudoeste 0 -- -- 98
2020-03-17 22:00:00 9.7 5 Sur 9 Este 0 -- -- 98
2020-03-17 21:00:00 10.2 3 Nordeste 12 Este 0 -- -- 97
2020-03-17 20:00:00 10.8 8 Este 20 Este 0 -- -- 95
2020-03-17 19:00:00 11.6 5 Nordeste 15 Este 0 -- -- 92
2020-03-17 18:00:00 13.4 10 Nordeste 21 Este 0 -- -- 84
2020-03-17 17:00:00 12.8 9 Nordeste 19 Nordeste -- -- -- 90
2020-03-17 16:00:00 11.8 6 Nordeste 13 Nordeste 0 -- -- 92
2020-03-17 15:00:00 11.9 6 Nordeste 14 Nordeste 0 -- -- 89
2020-03-17 14:00:00 12.3 5 Nordeste 14 Nordeste 0 -- -- 87
2020-03-17 13:00:00 12.7 6 Este 12 Este 0 -- -- 84
2020-03-17 12:00:00 12.4 4 Nordeste 14 Sudoeste 0 -- -- 84
2020-03-17 11:00:00 10.1 8 Sudoeste 15 Sudoeste 0 -- -- 93
2020-03-17 10:00:00 8.9 9 Sudoeste 13 Sudoeste 0 -- -- 98
2020-03-17 09:00:00 8.4 3 Sur 12 Sudoeste 0 -- -- 97
2020-03-17 08:00:00 8.2 8 Sudoeste 16 Sudoeste 0 -- -- 97
2020-03-17 07:00:00 7.9 8 Sudoeste 20 Sudoeste 0 -- -- 97
2020-03-17 06:00:00 8 10 Sudoeste 15 Sudoeste 0 -- -- 97
2020-03-17 05:00:00 8.2 8 Sudoeste 18 Sudoeste 0.2 -- -- 98
2020-03-17 04:00:00 8.2 7 Sudoeste 12 Sudoeste 0 -- -- 97
2020-03-17 03:00:00 8.9 3 Oeste 9 Noroeste 0 -- -- 93
2020-03-17 02:00:00 8.8 6 Oeste 18 Noroeste 0 -- -- 90
2020-03-17 01:00:00 9.4 10 Noroeste 20 Norte 0 -- -- 87
2020-03-17 00:00:00 9.3 9 Norte 18 Norte 0 -- -- 87
2020-03-16 23:00:00 9.4 11 Norte 20 Norte 0 -- -- 87
2020-03-16 22:00:00 9.3 12 Norte 21 Norte 0 -- -- 89
2020-03-16 21:00:00 9.3 12 Norte 27 Norte 0 -- -- 90
2020-03-16 20:00:00 9.1 16 Norte 33 Noroeste 0.2 -- -- 93
2020-03-16 19:00:00 9 17 Norte 33 Norte 1.2 -- -- 95
2020-03-16 18:00:00 8.2 18 Norte 32 Norte 2.4 -- -- 96
2020-03-16 17:00:00 10 22 Norte 37 Norte 0 -- -- 81
2020-03-16 16:00:00 10.4 26 Norte 41 Norte 0 -- -- 77
2020-03-16 15:00:00 10.7 21 Norte 36 Noroeste 0 -- -- 77
2020-03-16 14:00:00 10.7 19 Norte 36 Norte 0 -- -- 80
2020-03-16 13:00:00 10.7 22 Norte 40 Noroeste 0.2 -- -- 75
2020-03-16 12:00:00 10.3 24 Norte 41 Norte 0 -- -- 79
2020-03-16 11:00:00 9.7 23 Norte 38 Norte 0 -- -- 84
2020-03-16 10:00:00 7.4 4 Oeste 24 Oeste 1.2 -- -- 98
2020-03-16 09:00:00 6.6 9 Oeste 24 Oeste 3.2 -- -- 98
2020-03-16 08:00:00 6.2 11 Oeste 32 Sudoeste 3 -- -- 97
2020-03-16 07:00:00 6.4 8 Oeste 28 Oeste 1.2 -- -- 96
2020-03-16 06:00:00 5.9 7 Sudoeste 24 Oeste 1.8 -- -- 94
2020-03-16 05:00:00 5.7 10 Oeste 23 Sudoeste 0.2 -- -- 93
2020-03-16 04:00:00 5.3 12 Oeste 27 Sudoeste 0.2 -- -- 94
2020-03-16 03:00:00 5.5 11 Sudoeste 37 Sudoeste 0.6 -- -- 96
2020-03-16 02:00:00 5.5 7 Oeste 17 Oeste 2 -- -- 97
2020-03-16 01:00:00 5.6 6 Sudoeste 19 Oeste 0.2 -- -- 96
2020-03-16 00:00:00 5.8 6 Sudoeste 26 Oeste 2 -- -- 97
2020-03-15 23:00:00 6.1 9 Oeste 24 Oeste 2.4 -- -- 97
2020-03-15 22:00:00 6.2 10 Sudoeste 23 Oeste 0.8 -- -- 97
2020-03-15 21:00:00 6.7 11 Oeste 24 Sudoeste 1.2 -- -- 97
2020-03-15 20:00:00 7.5 13 Noroeste 35 Oeste 2.4 -- -- 98
2020-03-15 19:00:00 8 14 Noroeste 37 Oeste 4.4 -- -- 98
2020-03-15 18:00:00 9.4 19 Noroeste 43 Noroeste 2.2 -- -- 94
2020-03-15 17:00:00 13.2 9 Norte 19 Norte 0 -- -- 68
2020-03-15 16:00:00 12.8 6 Sur 13 Sur 0 -- -- 80
2020-03-15 15:00:00 13 11 Sur 16 Noroeste 0 -- -- 80
2020-03-15 14:00:00 12.3 10 Noroeste 24 Noroeste 0 -- -- 80
2020-03-15 13:00:00 12.1 12 Noroeste 24 Norte 0 -- -- 86
2020-03-15 12:00:00 12.2 12 Noroeste 23 Oeste 0 -- -- 86
2020-03-15 11:00:00 11.3 8 Noroeste 26 Oeste 0 -- -- 91
2020-03-15 10:00:00 10.5 6 Oeste 18 Noroeste 0 -- -- 96
2020-03-15 09:00:00 9 4 Sur 17 Sudoeste 0 -- -- 95
2020-03-15 08:00:00 7.3 6 Sudoeste 10 Sudoeste 0 -- -- 96
2020-03-15 07:00:00 6.7 0 Calma 10 Sudoeste 0 -- -- 96
2020-03-15 06:00:00 6.7 6 Sur 11 Sur 0 -- -- 95
2020-03-15 05:00:00 6.1 2 Oeste 14 Sudoeste 0 -- -- 98
2020-03-15 04:00:00 6 6 Sur 14 Sudoeste 0 -- -- 98
2020-03-15 03:00:00 6.5 4 Sur 11 Sudoeste 0 -- -- 98
2020-03-15 02:00:00 6.7 5 Sudoeste 10 Sudoeste 0 -- -- 98
2020-03-15 01:00:00 7 0 Calma 3 Este 0 -- -- 97
2020-03-15 00:00:00 7.3 0 Calma 5 Sur 0 -- -- 95
2020-03-14 23:00:00 7.6 5 Sudeste 9 Sudeste -- -- -- 92
2020-03-14 22:00:00 8.2 3 Sudeste 4 Sudeste 0 -- -- 89
2020-03-14 21:00:00 8.7 3 Este 6 Este 0 -- -- 87
2020-03-14 20:00:00 9.4 3 Este 7 Norte 0 -- -- 86
2020-03-14 19:00:00 10.7 4 Norte 15 Norte 0 -- -- 85
2020-03-14 18:00:00 12 9 Norte 20 Norte 0 -- -- 80
2020-03-14 17:00:00 12.8 10 Norte 18 Nordeste 0 -- -- 74
2020-03-14 16:00:00 13.6 10 Norte 18 Norte 0 -- -- 74
2020-03-14 15:00:00 13.7 9 Norte 19 Norte 0 -- -- 74
2020-03-14 14:00:00 13.6 9 Norte 18 Noroeste 0 -- -- 72
2020-03-14 13:00:00 12.6 9 Norte 19 Noroeste 0 -- -- 74
2020-03-14 12:00:00 12.9 7 Noroeste 18 Noroeste 0 -- -- 70
2020-03-14 11:00:00 13 6 Oeste 13 Oeste 0 -- -- 67
2020-03-14 10:00:00 11.3 6 Sudoeste 13 Sudoeste 0 -- -- 77
2020-03-14 09:00:00 8.9 8 Sudoeste 15 Sudoeste 0 -- -- 81
2020-03-14 08:00:00 8.1 8 Sudoeste 15 Sudoeste 0 -- -- 87
2020-03-14 07:00:00 7.7 5 Sudoeste 8 Sudoeste 0 -- -- 94
2020-03-14 06:00:00 7.4 0 Calma 8 Sudoeste 0 -- -- 93
2020-03-14 05:00:00 7.6 5 Sudoeste 12 Sudoeste 0 -- -- 91
2020-03-14 04:00:00 7 9 Sudoeste 12 Sudoeste 0 -- -- 92
2020-03-14 03:00:00 6.7 9 Sudoeste 15 Sudoeste -- -- -- 95
2020-03-14 02:00:00 5.9 8 Sur 14 Sudoeste 0 -- -- 91
2020-03-14 01:00:00 6.4 8 Sudoeste 14 Sudoeste 0 -- -- 92
2020-03-14 00:00:00 7.2 7 Sudoeste 14 Sudoeste 0 -- -- 92
2020-03-13 23:00:00 6.9 7 Sudoeste 10 Sudoeste 0 -- -- 90
2020-03-13 22:00:00 7.7 3 Sur 8 Este 0 -- -- 85
2020-03-13 21:00:00 7.9 3 Este 6 Nordeste 0 -- -- 85
2020-03-13 20:00:00 8.7 3 Norte 13 Sudeste 0 -- -- 82
2020-03-13 19:00:00 10.1 5 Este 14 Nordeste 0 -- -- 77
2020-03-13 18:00:00 11.5 6 Nordeste 22 Nordeste 0 -- -- 74
2020-03-13 17:00:00 12 11 Nordeste 26 Norte 0 -- -- 69
2020-03-13 16:00:00 12.7 10 Nordeste 23 Nordeste 0 -- -- 68
2020-03-13 15:00:00 12.5 12 Norte 24 Norte 0 -- -- 72
2020-03-13 14:00:00 12.7 13 Norte 23 Nordeste 0 -- -- 72
2020-03-13 13:00:00 11.6 9 Nordeste 19 Nordeste 0 -- -- 77
2020-03-13 12:00:00 11.6 8 Nordeste 20 Nordeste 0 -- -- 82
2020-03-13 11:00:00 10.8 8 Nordeste 20 Nordeste 0 -- -- 89
2020-03-13 10:00:00 9.8 5 Este 13 Este 0 -- -- 100
2020-03-13 09:00:00 9.2 0 Calma 6 Este 0 -- -- 100
2020-03-13 08:00:00 -- 4 Sudoeste 6 Sudoeste 0 -- -- --
2020-03-13 07:00:00 8.4 3 Sur 11 Nordeste 0.2 -- -- 100
2020-03-13 06:00:00 8.5 5 Nordeste 11 Nordeste 0.8 -- -- 100
2020-03-13 05:00:00 8.6 3 Norte 9 Norte 1 -- -- 100
2020-03-13 04:00:00 8.6 3 Norte 12 Norte 0 -- -- 100
2020-03-13 03:00:00 8.8 4 Norte 15 Nordeste 0.2 -- -- 100
2020-03-13 02:00:00 8.8 7 Norte 12 Norte 0.2 -- -- 100
2020-03-13 01:00:00 9.3 5 Norte 11 Nordeste 0.2 -- -- 100
2020-03-13 00:00:00 9.5 2 Norte 8 Nordeste 0.2 -- -- 100
2020-03-12 23:00:00 9.7 5 Nordeste 21 Nordeste 0.4 -- -- 100
2020-03-12 22:00:00 9.7 11 Norte 24 Nordeste 0.8 -- -- 100
2020-03-12 21:00:00 9.9 0 Calma 9 Noroeste 0.4 -- -- 100
2020-03-12 20:00:00 10.1 5 Norte 10 Norte 0.4 -- -- 100
2020-03-12 19:00:00 10.2 3 Noroeste 10 Oeste 0.4 -- -- 99
2020-03-12 18:00:00 10.6 0 Calma 8 Sur 0 -- -- 100
2020-03-12 17:00:00 10.4 4 Noroeste 27 Norte 0.8 -- -- 100
2020-03-12 16:00:00 10.7 17 Norte 30 Norte 0.8 -- -- 99
2020-03-12 15:00:00 12.5 6 Norte 10 Norte 0 -- -- 99
2020-03-12 14:00:00 12.5 5 Noroeste 9 Norte 0.2 -- -- 98
2020-03-12 13:00:00 12.3 5 Norte 12 Norte 0 -- -- 97
2020-03-12 12:00:00 12.9 3 Sudeste 6 Sur 0 -- -- 92
2020-03-12 11:00:00 12.5 3 Sur 6 Sudoeste 0 -- -- 95
2020-03-12 10:00:00 12.4 2 Norte 5 Noroeste 0 -- -- 94
2020-03-12 09:00:00 11.8 2 Norte 6 Noroeste 0 -- -- 96
2020-03-12 08:00:00 11.3 0 Calma 8 Sur 0 -- -- 96
2020-03-12 07:00:00 11.5 6 Sur 10 Sudoeste 0 -- -- 97
2020-03-12 06:00:00 11.1 7 Sur 12 Sudoeste 0 -- -- 98
2020-03-12 05:00:00 11.2 10 Sudoeste 15 Sudoeste 0 -- -- 97
2020-03-12 04:00:00 11.3 4 Sudoeste 10 Sudoeste 0 -- -- 97
2020-03-12 03:00:00 11.1 6 Sudoeste 12 Sudoeste 0 -- -- 98
2020-03-12 02:00:00 11 3 Sur 8 Sudoeste 0 -- -- 99
2020-03-12 01:00:00 10.8 6 Sudoeste 12 Sudoeste 0 -- -- 99
2020-03-12 00:00:00 10.6 4 Sudoeste 9 Noroeste 0 -- -- 99
2020-03-11 23:00:00 10.5 2 Noroeste 12 Noroeste 0 -- -- 98
2020-03-11 22:00:00 11 8 Noroeste 14 Noroeste 0 -- -- 96
2020-03-11 21:00:00 11.5 2 Noroeste 6 Noroeste 0 -- -- 90
2020-03-11 20:00:00 12 3 Norte 7 Nordeste 0 -- -- 88
2020-03-11 19:00:00 13.2 3 Norte 10 Nordeste 0 -- -- 84
2020-03-11 18:00:00 14.8 6 Nordeste 14 Norte 0 -- -- 77
2020-03-11 17:00:00 16.2 9 Nordeste 17 Nordeste 0 -- -- 73
2020-03-11 16:00:00 16.9 7 Norte 15 Norte 0 -- -- 71
2020-03-11 15:00:00 16.5 12 Norte 21 Norte 0 -- -- 73
2020-03-11 14:00:00 16.8 11 Norte 21 Nordeste 0 -- -- 73
2020-03-11 13:00:00 16.4 8 Nordeste 19 Nordeste 0 -- -- 76
2020-03-11 12:00:00 15.9 7 Nordeste 16 Norte 0 -- -- 77
2020-03-11 11:00:00 15 5 Nordeste 10 Nordeste 0 -- -- 77
2020-03-11 10:00:00 11.8 3 Sur 8 Sur 0 -- -- 87
2020-03-11 09:00:00 9.1 6 Sur 10 Sudoeste 0 -- -- 92
2020-03-11 08:00:00 7.5 9 Sudoeste 14 Sudoeste 0 -- -- 92
2020-03-11 07:00:00 6.5 7 Sur 12 Sudoeste 0 -- -- 93
2020-03-11 06:00:00 8.4 5 Sudoeste 11 Sudoeste 0 -- -- 92
2020-03-11 05:00:00 8.6 5 Sur 10 Sudoeste 0 -- -- 94
2020-03-11 04:00:00 7.7 4 Sur 9 Sudoeste 0 -- -- 95
2020-03-11 03:00:00 7.4 7 Sur 12 Sudoeste 0 -- -- 96
2020-03-11 02:00:00 7.8 8 Sur 11 Sur 0 -- -- 96
2020-03-11 01:00:00 9.5 4 Sudoeste 13 Sur 0 -- -- 93
2020-03-11 00:00:00 9.6 7 Sudoeste 9 Sudoeste 0 -- -- 94
2020-03-10 23:00:00 9.7 4 Sur 5 Sur 0 -- -- 93
2020-03-10 22:00:00 10.6 2 Sur 4 Sudeste 0 -- -- 90
2020-03-10 21:00:00 10.7 2 Este 4 Sur 0 -- -- 89
2020-03-10 20:00:00 11.3 0 Calma 2 Sudeste 0 -- -- 86
2020-03-10 19:00:00 12.1 2 Sudoeste 7 Sur 0 -- -- 84
2020-03-10 18:00:00 13.5 4 Nordeste 8 Norte 0 -- -- 78
2020-03-10 17:00:00 14.2 6 Norte 16 Norte 0 -- -- 76
2020-03-10 16:00:00 14.1 10 Norte 17 Norte 0 -- -- 76
2020-03-10 15:00:00 13.9 9 Norte 18 Norte 0 -- -- 77
2020-03-10 14:00:00 13.7 7 Norte 14 Norte 0 -- -- 78
2020-03-10 13:00:00 12.9 6 Noroeste 21 Noroeste 0 -- -- 82
2020-03-10 12:00:00 13.5 5 Noroeste 11 Sur 0 -- -- 79
2020-03-10 11:00:00 11.9 8 Sur 13 Sudoeste 0 -- -- 84
2020-03-10 10:00:00 9.5 7 Sur 10 Sur 0 -- -- 90
2020-03-10 09:00:00 6.7 2 Norte 16 Sudoeste 0 -- -- 93
2020-03-10 08:00:00 5.9 9 Sudoeste 14 Sudoeste 0 -- -- 95
2020-03-10 07:00:00 7.2 3 Sur 11 Sudoeste 0 -- -- 87
2020-03-10 06:00:00 7.4 7 Sudoeste 13 Sudoeste 0 -- -- 89
2020-03-10 05:00:00 7.9 9 Sudoeste 14 Sudoeste 0 -- -- 88
2020-03-10 04:00:00 7.8 9 Sudoeste 14 Sudoeste 0 -- -- 91
2020-03-10 03:00:00 8.3 8 Sudoeste 15 Sudoeste 0 -- -- 90
2020-03-10 02:00:00 8.9 6 Sudoeste 12 Sudoeste 0 -- -- 87
2020-03-10 01:00:00 9.2 6 Sudoeste 10 Sudoeste 0 -- -- 87
2020-03-10 00:00:00 9.2 6 Sudoeste 12 Sudoeste 0 -- -- 89
2020-03-09 23:00:00 9.3 6 Sudoeste 11 Sudoeste 0 -- -- 90
2020-03-09 22:00:00 9.4 8 Sudoeste 10 Sudoeste 0 -- -- 91
2020-03-09 21:00:00 9.9 4 Sudoeste 7 Sudoeste 0 -- -- 89
2020-03-09 20:00:00 10.4 4 Sudoeste 10 Oeste 0 -- -- 88
2020-03-09 19:00:00 10.9 3 Oeste 16 Oeste 0 -- -- 85
2020-03-09 18:00:00 11.6 6 Noroeste 21 Oeste 0 -- -- 81
2020-03-09 17:00:00 13.2 8 Noroeste 24 Noroeste 0 -- -- 73
2020-03-09 16:00:00 13 12 Noroeste 31 Noroeste 0 -- -- 70
2020-03-09 15:00:00 13.1 13 Noroeste 28 Noroeste 0 -- -- 69
2020-03-09 14:00:00 12.9 15 Noroeste 35 Noroeste 0 -- -- 71
2020-03-09 13:00:00 12.9 17 Noroeste 38 Oeste 0 -- -- 68
2020-03-09 12:00:00 12.5 14 Noroeste 33 Oeste 0 -- -- 70
2020-03-09 11:00:00 12 16 Noroeste 35 Oeste 0 -- -- 69
2020-03-09 10:00:00 11.6 13 Noroeste 31 Noroeste 0 -- -- 72
2020-03-09 09:00:00 10.7 14 Noroeste 32 Noroeste 0 -- -- 80
2020-03-09 08:00:00 10.1 9 Oeste 31 Noroeste 0 -- -- 82
2020-03-09 07:00:00 10.2 12 Noroeste 35 Oeste 0 -- -- 83
2020-03-09 06:00:00 10.2 10 Noroeste 35 Oeste 0 -- -- 83
2020-03-09 05:00:00 10.2 12 Oeste 28 Noroeste 0 -- -- 87
2020-03-09 04:00:00 10.1 11 Noroeste 40 Oeste 0 -- -- 89
2020-03-09 03:00:00 10.2 13 Oeste 35 Oeste 0 -- -- 89
2020-03-09 02:00:00 9.5 9 Oeste 33 Oeste 0.2 -- -- 91
2020-03-09 01:00:00 9.6 13 Noroeste 37 Noroeste 0.6 -- -- 95
2020-03-09 00:00:00 9.5 8 Oeste 32 Oeste 0.4 -- -- 94